sensor_id;sensor_type;location;lat;lon;timestamp;P1;durP1;ratioP1;P2;durP2;ratioP2
12314;SDS011;23886;46.614;14.276;2022-07-29T00:02:05;4.10;;;3.80;;
12314;SDS011;23886;46.614;14.276;2022-07-29T00:04:33;4.73;;;4.23;;
12314;SDS011;23886;46.614;14.276;2022-07-29T00:07:01;4.87;;;4.37;;
12314;SDS011;23886;46.614;14.276;2022-07-29T00:09:28;4.57;;;4.17;;
12314;SDS011;23886;46.614;14.276;2022-07-29T00:11:55;6.57;;;4.47;;
12314;SDS011;23886;46.614;14.276;2022-07-29T00:14:26;4.53;;;4.13;;
12314;SDS011;23886;46.614;14.276;2022-07-29T00:16:54;4.93;;;4.53;;
12314;SDS011;23886;46.614;14.276;2022-07-29T00:19:21;4.77;;;4.37;;
12314;SDS011;23886;46.614;14.276;2022-07-29T00:21:48;4.97;;;4.57;;
12314;SDS011;23886;46.614;14.276;2022-07-29T00:24:15;5.73;;;4.37;;
12314;SDS011;23886;46.614;14.276;2022-07-29T00:26:42;4.70;;;4.30;;
12314;SDS011;23886;46.614;14.276;2022-07-29T00:29:09;5.43;;;4.30;;
12314;SDS011;23886;46.614;14.276;2022-07-29T00:31:37;4.33;;;4.03;;
12314;SDS011;23886;46.614;14.276;2022-07-29T00:34:04;5.07;;;4.57;;
12314;SDS011;23886;46.614;14.276;2022-07-29T00:36:52;5.03;;;4.43;;
12314;SDS011;23886;46.614;14.276;2022-07-29T00:39:18;4.77;;;4.37;;
12314;SDS011;23886;46.614;14.276;2022-07-29T00:41:45;4.50;;;4.13;;
12314;SDS011;23886;46.614;14.276;2022-07-29T00:44:12;5.77;;;4.20;;
12314;SDS011;23886;46.614;14.276;2022-07-29T00:46:40;4.50;;;4.10;;
12314;SDS011;23886;46.614;14.276;2022-07-29T00:49:07;5.37;;;4.87;;
12314;SDS011;23886;46.614;14.276;2022-07-29T00:51:34;4.87;;;4.43;;
12314;SDS011;23886;46.614;14.276;2022-07-29T00:54:02;4.87;;;4.27;;
12314;SDS011;23886;46.614;14.276;2022-07-29T00:56:30;5.23;;;4.27;;
12314;SDS011;23886;46.614;14.276;2022-07-29T00:58:58;5.03;;;4.40;;
12314;SDS011;23886;46.614;14.276;2022-07-29T01:01:26;4.33;;;3.93;;
12314;SDS011;23886;46.614;14.276;2022-07-29T01:03:54;6.00;;;4.40;;
12314;SDS011;23886;46.614;14.276;2022-07-29T01:06:21;4.80;;;4.40;;
12314;SDS011;23886;46.614;14.276;2022-07-29T01:08:49;5.00;;;4.50;;
12314;SDS011;23886;46.614;14.276;2022-07-29T01:11:17;4.70;;;4.30;;
12314;SDS011;23886;46.614;14.276;2022-07-29T01:13:44;4.60;;;4.20;;
12314;SDS011;23886;46.614;14.276;2022-07-29T01:16:15;5.17;;;4.40;;
12314;SDS011;23886;46.614;14.276;2022-07-29T01:18:49;4.63;;;4.23;;
12314;SDS011;23886;46.614;14.276;2022-07-29T01:21:27;4.80;;;4.40;;
12314;SDS011;23886;46.614;14.276;2022-07-29T01:24:14;5.53;;;4.50;;
12314;SDS011;23886;46.614;14.276;2022-07-29T01:27:11;4.70;;;4.30;;
12314;SDS011;23886;46.614;14.276;2022-07-29T01:29:59;4.87;;;4.40;;
12314;SDS011;23886;46.614;14.276;2022-07-29T01:32:29;5.17;;;4.70;;
12314;SDS011;23886;46.614;14.276;2022-07-29T01:35:02;5.67;;;4.80;;
12314;SDS011;23886;46.614;14.276;2022-07-29T01:37:33;5.10;;;4.70;;
12314;SDS011;23886;46.614;14.276;2022-07-29T01:40:06;5.77;;;5.13;;
12314;SDS011;23886;46.614;14.276;2022-07-29T01:42:41;5.93;;;4.73;;
12314;SDS011;23886;46.614;14.276;2022-07-29T01:45:12;4.90;;;4.50;;
12314;SDS011;23886;46.614;14.276;2022-07-29T01:47:43;5.00;;;4.60;;
12314;SDS011;23886;46.614;14.276;2022-07-29T01:50:16;5.17;;;4.77;;
12314;SDS011;23886;46.614;14.276;2022-07-29T01:52:46;5.73;;;4.57;;
12314;SDS011;23886;46.614;14.276;2022-07-29T01:55:18;4.90;;;4.50;;
12314;SDS011;23886;46.614;14.276;2022-07-29T01:57:48;4.53;;;4.13;;
12314;SDS011;23886;46.614;14.276;2022-07-29T02:00:17;5.47;;;4.63;;
12314;SDS011;23886;46.614;14.276;2022-07-29T02:02:45;5.70;;;4.83;;
12314;SDS011;23886;46.614;14.276;2022-07-29T02:05:15;5.13;;;4.63;;
12314;SDS011;23886;46.614;14.276;2022-07-29T02:07:44;5.10;;;4.60;;
12314;SDS011;23886;46.614;14.276;2022-07-29T02:10:14;5.43;;;4.57;;
12314;SDS011;23886;46.614;14.276;2022-07-29T02:12:44;4.93;;;4.43;;
12314;SDS011;23886;46.614;14.276;2022-07-29T02:15:13;4.90;;;4.50;;
12314;SDS011;23886;46.614;14.276;2022-07-29T02:17:45;5.33;;;4.47;;
12314;SDS011;23886;46.614;14.276;2022-07-29T02:20:15;5.30;;;4.80;;
12314;SDS011;23886;46.614;14.276;2022-07-29T02:22:43;4.77;;;4.37;;
12314;SDS011;23886;46.614;14.276;2022-07-29T02:25:11;4.87;;;4.47;;
12314;SDS011;23886;46.614;14.276;2022-07-29T02:27:40;4.97;;;4.47;;
12314;SDS011;23886;46.614;14.276;2022-07-29T02:30:09;5.00;;;4.20;;
12314;SDS011;23886;46.614;14.276;2022-07-29T02:32:38;4.87;;;4.43;;
12314;SDS011;23886;46.614;14.276;2022-07-29T02:35:09;5.00;;;4.60;;
12314;SDS011;23886;46.614;14.276;2022-07-29T02:37:38;5.20;;;4.80;;
12314;SDS011;23886;46.614;14.276;2022-07-29T02:40:08;5.00;;;4.60;;
12314;SDS011;23886;46.614;14.276;2022-07-29T02:42:37;5.00;;;4.60;;
12314;SDS011;23886;46.614;14.276;2022-07-29T02:45:07;4.90;;;4.50;;
12314;SDS011;23886;46.614;14.276;2022-07-29T02:47:36;5.50;;;5.00;;
12314;SDS011;23886;46.614;14.276;2022-07-29T02:50:07;5.17;;;4.67;;
12314;SDS011;23886;46.614;14.276;2022-07-29T02:52:39;5.70;;;4.90;;
12314;SDS011;23886;46.614;14.276;2022-07-29T02:55:11;5.10;;;4.70;;
12314;SDS011;23886;46.614;14.276;2022-07-29T02:57:43;5.43;;;4.93;;
12314;SDS011;23886;46.614;14.276;2022-07-29T03:00:14;5.07;;;4.67;;
12314;SDS011;23886;46.614;14.276;2022-07-29T03:02:44;5.30;;;4.80;;
12314;SDS011;23886;46.614;14.276;2022-07-29T03:05:18;5.17;;;4.77;;
12314;SDS011;23886;46.614;14.276;2022-07-29T03:07:47;6.13;;;5.13;;
12314;SDS011;23886;46.614;14.276;2022-07-29T03:10:19;5.00;;;4.60;;
12314;SDS011;23886;46.614;14.276;2022-07-29T03:12:47;5.43;;;4.93;;
12314;SDS011;23886;46.614;14.276;2022-07-29T03:15:14;5.40;;;4.53;;
12314;SDS011;23886;46.614;14.276;2022-07-29T03:17:42;5.17;;;4.73;;
12314;SDS011;23886;46.614;14.276;2022-07-29T03:20:10;5.33;;;4.83;;
12314;SDS011;23886;46.614;14.276;2022-07-29T03:22:40;5.07;;;4.67;;
12314;SDS011;23886;46.614;14.276;2022-07-29T03:25:09;5.23;;;4.47;;
12314;SDS011;23886;46.614;14.276;2022-07-29T03:27:37;5.47;;;4.93;;
12314;SDS011;23886;46.614;14.276;2022-07-29T03:30:05;5.10;;;4.70;;
12314;SDS011;23886;46.614;14.276;2022-07-29T03:32:33;5.87;;;5.23;;
12314;SDS011;23886;46.614;14.276;2022-07-29T03:35:00;5.10;;;4.70;;
12314;SDS011;23886;46.614;14.276;2022-07-29T03:37:27;5.23;;;4.83;;
12314;SDS011;23886;46.614;14.276;2022-07-29T03:39:57;6.73;;;4.80;;
12314;SDS011;23886;46.614;14.276;2022-07-29T03:42:25;4.93;;;4.53;;
12314;SDS011;23886;46.614;14.276;2022-07-29T03:44:56;5.47;;;4.70;;
12314;SDS011;23886;46.614;14.276;2022-07-29T03:47:26;6.83;;;4.73;;
12314;SDS011;23886;46.614;14.276;2022-07-29T03:49:56;5.10;;;4.60;;
12314;SDS011;23886;46.614;14.276;2022-07-29T03:52:27;5.00;;;4.60;;
12314;SDS011;23886;46.614;14.276;2022-07-29T03:54:56;5.00;;;4.60;;
12314;SDS011;23886;46.614;14.276;2022-07-29T03:57:24;5.30;;;4.77;;
12314;SDS011;23886;46.614;14.276;2022-07-29T03:59:54;5.37;;;4.97;;
12314;SDS011;23886;46.614;14.276;2022-07-29T04:02:21;5.10;;;4.40;;
12314;SDS011;23886;46.614;14.276;2022-07-29T04:04:49;4.90;;;4.50;;
12314;SDS011;23886;46.614;14.276;2022-07-29T04:07:16;4.70;;;4.30;;
12314;SDS011;23886;46.614;14.276;2022-07-29T04:09:43;4.93;;;4.53;;
12314;SDS011;23886;46.614;14.276;2022-07-29T04:12:12;5.90;;;4.17;;
12314;SDS011;23886;46.614;14.276;2022-07-29T04:14:39;7.03;;;4.73;;
12314;SDS011;23886;46.614;14.276;2022-07-29T04:17:06;4.87;;;4.40;;
12314;SDS011;23886;46.614;14.276;2022-07-29T04:19:33;5.10;;;4.60;;
12314;SDS011;23886;46.614;14.276;2022-07-29T04:22:00;4.77;;;4.30;;
12314;SDS011;23886;46.614;14.276;2022-07-29T04:24:27;5.27;;;4.10;;
12314;SDS011;23886;46.614;14.276;2022-07-29T04:26:54;4.67;;;4.27;;
12314;SDS011;23886;46.614;14.276;2022-07-29T04:29:23;4.63;;;4.23;;
12314;SDS011;23886;46.614;14.276;2022-07-29T04:31:50;5.13;;;4.63;;
12314;SDS011;23886;46.614;14.276;2022-07-29T04:34:17;4.90;;;3.97;;
12314;SDS011;23886;46.614;14.276;2022-07-29T04:36:44;5.37;;;4.33;;
12314;SDS011;23886;46.614;14.276;2022-07-29T04:39:11;5.10;;;4.50;;
12314;SDS011;23886;46.614;14.276;2022-07-29T04:41:38;4.73;;;4.07;;
12314;SDS011;23886;46.614;14.276;2022-07-29T04:44:05;4.73;;;4.27;;
12314;SDS011;23886;46.614;14.276;2022-07-29T04:46:34;4.00;;;3.70;;
12314;SDS011;23886;46.614;14.276;2022-07-29T04:49:01;4.07;;;3.70;;
12314;SDS011;23886;46.614;14.276;2022-07-29T04:51:29;4.70;;;4.30;;
12314;SDS011;23886;46.614;14.276;2022-07-29T04:53:56;5.17;;;4.67;;
12314;SDS011;23886;46.614;14.276;2022-07-29T04:56:23;4.40;;;4.10;;
12314;SDS011;23886;46.614;14.276;2022-07-29T04:58:50;5.20;;;4.80;;
12314;SDS011;23886;46.614;14.276;2022-07-29T05:01:17;4.47;;;4.07;;
12314;SDS011;23886;46.614;14.276;2022-07-29T05:03:46;4.83;;;4.43;;
12314;SDS011;23886;46.614;14.276;2022-07-29T05:06:13;4.60;;;4.20;;
12314;SDS011;23886;46.614;14.276;2022-07-29T05:08:40;4.30;;;3.90;;
12314;SDS011;23886;46.614;14.276;2022-07-29T05:11:07;4.37;;;4.07;;
12314;SDS011;23886;46.614;14.276;2022-07-29T05:13:34;4.47;;;4.07;;
12314;SDS011;23886;46.614;14.276;2022-07-29T05:16:01;4.80;;;4.40;;
12314;SDS011;23886;46.614;14.276;2022-07-29T05:18:28;4.57;;;4.17;;
12314;SDS011;23886;46.614;14.276;2022-07-29T05:20:57;4.93;;;4.43;;
12314;SDS011;23886;46.614;14.276;2022-07-29T05:23:24;6.63;;;4.40;;
12314;SDS011;23886;46.614;14.276;2022-07-29T05:25:51;6.77;;;4.40;;
12314;SDS011;23886;46.614;14.276;2022-07-29T05:28:18;4.57;;;3.80;;
12314;SDS011;23886;46.614;14.276;2022-07-29T05:30:45;4.57;;;4.17;;
12314;SDS011;23886;46.614;14.276;2022-07-29T05:33:12;5.20;;;4.67;;
12314;SDS011;23886;46.614;14.276;2022-07-29T05:35:39;4.43;;;4.03;;
12314;SDS011;23886;46.614;14.276;2022-07-29T05:38:07;4.10;;;3.80;;
12314;SDS011;23886;46.614;14.276;2022-07-29T05:40:34;4.70;;;4.23;;
12314;SDS011;23886;46.614;14.276;2022-07-29T05:43:01;4.47;;;4.07;;
12314;SDS011;23886;46.614;14.276;2022-07-29T05:45:28;4.30;;;4.00;;
12314;SDS011;23886;46.614;14.276;2022-07-29T05:47:55;6.50;;;5.90;;
12314;SDS011;23886;46.614;14.276;2022-07-29T05:50:22;4.20;;;3.80;;
12314;SDS011;23886;46.614;14.276;2022-07-29T05:52:49;4.50;;;4.10;;
12314;SDS011;23886;46.614;14.276;2022-07-29T05:55:18;5.17;;;3.90;;
12314;SDS011;23886;46.614;14.276;2022-07-29T05:57:45;4.37;;;3.97;;
12314;SDS011;23886;46.614;14.276;2022-07-29T06:00:12;4.03;;;3.60;;
12314;SDS011;23886;46.614;14.276;2022-07-29T06:02:39;4.23;;;3.83;;
12314;SDS011;23886;46.614;14.276;2022-07-29T06:05:07;4.37;;;3.97;;
12314;SDS011;23886;46.614;14.276;2022-07-29T06:07:34;5.00;;;3.80;;
12314;SDS011;23886;46.614;14.276;2022-07-29T06:10:01;4.03;;;3.73;;
12314;SDS011;23886;46.614;14.276;2022-07-29T06:12:30;5.23;;;3.80;;
12314;SDS011;23886;46.614;14.276;2022-07-29T06:14:57;4.53;;;3.83;;
12314;SDS011;23886;46.614;14.276;2022-07-29T06:17:24;4.77;;;3.90;;
12314;SDS011;23886;46.614;14.276;2022-07-29T06:19:51;4.27;;;3.90;;
12314;SDS011;23886;46.614;14.276;2022-07-29T06:22:23;5.47;;;4.00;;
12314;SDS011;23886;46.614;14.276;2022-07-29T06:24:50;4.60;;;4.03;;
12314;SDS011;23886;46.614;14.276;2022-07-29T06:27:17;3.97;;;3.40;;
12314;SDS011;23886;46.614;14.276;2022-07-29T06:29:45;4.30;;;3.90;;
12314;SDS011;23886;46.614;14.276;2022-07-29T06:32:12;5.40;;;4.00;;
12314;SDS011;23886;46.614;14.276;2022-07-29T06:34:39;4.43;;;4.03;;
12314;SDS011;23886;46.614;14.276;2022-07-29T06:37:07;4.30;;;3.90;;
12314;SDS011;23886;46.614;14.276;2022-07-29T06:39:36;4.10;;;3.80;;
12314;SDS011;23886;46.614;14.276;2022-07-29T06:42:04;4.30;;;4.00;;
12314;SDS011;23886;46.614;14.276;2022-07-29T06:44:31;3.83;;;3.50;;
12314;SDS011;23886;46.614;14.276;2022-07-29T06:47:00;4.03;;;3.57;;
12314;SDS011;23886;46.614;14.276;2022-07-29T06:49:27;5.07;;;4.20;;
12314;SDS011;23886;46.614;14.276;2022-07-29T06:51:54;4.20;;;3.90;;
12314;SDS011;23886;46.614;14.276;2022-07-29T06:54:21;4.40;;;4.00;;
12314;SDS011;23886;46.614;14.276;2022-07-29T06:56:48;4.60;;;3.53;;
12314;SDS011;23886;46.614;14.276;2022-07-29T06:59:15;5.30;;;4.90;;
12314;SDS011;23886;46.614;14.276;2022-07-29T07:01:42;3.83;;;3.53;;
12314;SDS011;23886;46.614;14.276;2022-07-29T07:04:11;3.70;;;3.40;;
12314;SDS011;23886;46.614;14.276;2022-07-29T07:06:38;4.87;;;3.87;;
12314;SDS011;23886;46.614;14.276;2022-07-29T07:09:05;3.97;;;3.67;;
12314;SDS011;23886;46.614;14.276;2022-07-29T07:11:33;3.93;;;3.53;;
12314;SDS011;23886;46.614;14.276;2022-07-29T07:14:10;5.10;;;3.50;;
12314;SDS011;23886;46.614;14.276;2022-07-29T07:16:37;4.20;;;3.70;;
12314;SDS011;23886;46.614;14.276;2022-07-29T07:19:03;3.77;;;3.47;;
12314;SDS011;23886;46.614;14.276;2022-07-29T07:21:32;7.83;;;3.73;;
12314;SDS011;23886;46.614;14.276;2022-07-29T07:24:00;5.23;;;3.90;;
12314;SDS011;23886;46.614;14.276;2022-07-29T07:26:27;3.83;;;3.53;;
12314;SDS011;23886;46.614;14.276;2022-07-29T07:28:54;4.40;;;3.70;;
12314;SDS011;23886;46.614;14.276;2022-07-29T07:31:21;3.53;;;3.23;;
12314;SDS011;23886;46.614;14.276;2022-07-29T07:33:48;5.87;;;3.50;;
12314;SDS011;23886;46.614;14.276;2022-07-29T07:36:16;3.90;;;3.60;;
12314;SDS011;23886;46.614;14.276;2022-07-29T07:38:45;4.00;;;3.50;;
12314;SDS011;23886;46.614;14.276;2022-07-29T07:41:11;3.87;;;3.37;;
12314;SDS011;23886;46.614;14.276;2022-07-29T07:43:38;4.47;;;3.83;;
12314;SDS011;23886;46.614;14.276;2022-07-29T07:46:05;4.10;;;3.70;;
12314;SDS011;23886;46.614;14.276;2022-07-29T07:48:32;4.90;;;3.53;;
12314;SDS011;23886;46.614;14.276;2022-07-29T07:50:59;3.77;;;3.40;;
12314;SDS011;23886;46.614;14.276;2022-07-29T07:53:26;4.00;;;3.60;;
12314;SDS011;23886;46.614;14.276;2022-07-29T07:55:56;4.67;;;3.40;;
12314;SDS011;23886;46.614;14.276;2022-07-29T07:58:23;5.87;;;3.47;;
12314;SDS011;23886;46.614;14.276;2022-07-29T08:00:50;3.37;;;3.07;;
12314;SDS011;23886;46.614;14.276;2022-07-29T08:03:17;3.87;;;3.20;;
12314;SDS011;23886;46.614;14.276;2022-07-29T08:05:44;3.30;;;3.00;;
12314;SDS011;23886;46.614;14.276;2022-07-29T08:08:11;3.60;;;3.30;;
12314;SDS011;23886;46.614;14.276;2022-07-29T08:10:38;4.50;;;3.50;;
12314;SDS011;23886;46.614;14.276;2022-07-29T08:13:23;4.03;;;3.40;;
12314;SDS011;23886;46.614;14.276;2022-07-29T08:15:53;3.77;;;3.40;;
12314;SDS011;23886;46.614;14.276;2022-07-29T08:18:24;3.87;;;3.50;;
12314;SDS011;23886;46.614;14.276;2022-07-29T08:20:52;4.60;;;3.73;;
12314;SDS011;23886;46.614;14.276;2022-07-29T08:23:19;4.07;;;3.20;;
12314;SDS011;23886;46.614;14.276;2022-07-29T08:25:46;4.03;;;3.60;;
12314;SDS011;23886;46.614;14.276;2022-07-29T08:28:13;4.40;;;3.57;;
12314;SDS011;23886;46.614;14.276;2022-07-29T08:30:42;3.77;;;3.47;;
12314;SDS011;23886;46.614;14.276;2022-07-29T08:33:08;3.97;;;3.27;;
12314;SDS011;23886;46.614;14.276;2022-07-29T08:35:35;3.60;;;3.30;;
12314;SDS011;23886;46.614;14.276;2022-07-29T08:38:02;3.50;;;3.20;;
12314;SDS011;23886;46.614;14.276;2022-07-29T08:40:29;5.17;;;3.40;;
12314;SDS011;23886;46.614;14.276;2022-07-29T08:42:57;3.93;;;3.60;;
12314;SDS011;23886;46.614;14.276;2022-07-29T08:45:24;3.87;;;3.20;;
12314;SDS011;23886;46.614;14.276;2022-07-29T08:47:53;4.07;;;3.67;;
12314;SDS011;23886;46.614;14.276;2022-07-29T08:50:22;3.83;;;3.43;;
12314;SDS011;23886;46.614;14.276;2022-07-29T08:52:49;4.10;;;3.30;;
12314;SDS011;23886;46.614;14.276;2022-07-29T08:55:16;4.00;;;3.53;;
12314;SDS011;23886;46.614;14.276;2022-07-29T08:57:44;2.80;;;2.53;;
12314;SDS011;23886;46.614;14.276;2022-07-29T09:00:12;3.27;;;2.97;;
12314;SDS011;23886;46.614;14.276;2022-07-29T09:02:40;3.07;;;2.80;;
12314;SDS011;23886;46.614;14.276;2022-07-29T09:05:12;3.20;;;2.90;;
12314;SDS011;23886;46.614;14.276;2022-07-29T09:07:40;3.07;;;2.80;;
12314;SDS011;23886;46.614;14.276;2022-07-29T09:10:09;4.40;;;2.83;;
12314;SDS011;23886;46.614;14.276;2022-07-29T09:12:36;3.37;;;2.70;;
12314;SDS011;23886;46.614;14.276;2022-07-29T09:15:03;3.00;;;2.80;;
12314;SDS011;23886;46.614;14.276;2022-07-29T09:17:40;2.87;;;2.67;;
12314;SDS011;23886;46.614;14.276;2022-07-29T09:20:08;3.03;;;2.73;;
12314;SDS011;23886;46.614;14.276;2022-07-29T09:22:38;3.77;;;3.20;;
12314;SDS011;23886;46.614;14.276;2022-07-29T09:25:05;3.13;;;2.90;;
12314;SDS011;23886;46.614;14.276;2022-07-29T09:27:33;3.17;;;2.87;;
12314;SDS011;23886;46.614;14.276;2022-07-29T09:30:02;3.43;;;3.23;;
12314;SDS011;23886;46.614;14.276;2022-07-29T09:32:31;3.80;;;3.50;;
12314;SDS011;23886;46.614;14.276;2022-07-29T09:35:13;3.77;;;3.47;;
12314;SDS011;23886;46.614;14.276;2022-07-29T09:37:46;3.60;;;3.30;;
12314;SDS011;23886;46.614;14.276;2022-07-29T09:40:16;3.77;;;3.47;;
12314;SDS011;23886;46.614;14.276;2022-07-29T09:42:45;3.47;;;3.10;;
12314;SDS011;23886;46.614;14.276;2022-07-29T09:45:12;3.30;;;3.10;;
12314;SDS011;23886;46.614;14.276;2022-07-29T09:47:53;3.80;;;3.40;;
12314;SDS011;23886;46.614;14.276;2022-07-29T09:50:22;4.03;;;3.40;;
12314;SDS011;23886;46.614;14.276;2022-07-29T09:53:01;4.10;;;3.43;;
12314;SDS011;23886;46.614;14.276;2022-07-29T09:55:29;3.70;;;3.40;;
12314;SDS011;23886;46.614;14.276;2022-07-29T09:57:59;4.30;;;3.40;;
12314;SDS011;23886;46.614;14.276;2022-07-29T10:00:42;3.73;;;3.43;;
12314;SDS011;23886;46.614;14.276;2022-07-29T10:03:09;4.00;;;3.70;;
12314;SDS011;23886;46.614;14.276;2022-07-29T10:05:36;3.57;;;3.27;;
12314;SDS011;23886;46.614;14.276;2022-07-29T10:08:05;4.20;;;3.47;;
12314;SDS011;23886;46.614;14.276;2022-07-29T10:10:34;3.60;;;3.30;;
12314;SDS011;23886;46.614;14.276;2022-07-29T10:13:02;3.50;;;3.20;;
12314;SDS011;23886;46.614;14.276;2022-07-29T10:15:32;3.60;;;3.30;;
12314;SDS011;23886;46.614;14.276;2022-07-29T10:18:02;6.23;;;3.63;;
12314;SDS011;23886;46.614;14.276;2022-07-29T10:20:29;4.00;;;3.60;;
12314;SDS011;23886;46.614;14.276;2022-07-29T10:22:56;3.47;;;3.23;;
12314;SDS011;23886;46.614;14.276;2022-07-29T10:25:25;3.83;;;3.27;;
12314;SDS011;23886;46.614;14.276;2022-07-29T10:27:53;3.87;;;3.57;;
12314;SDS011;23886;46.614;14.276;2022-07-29T10:30:21;3.83;;;3.53;;
12314;SDS011;23886;46.614;14.276;2022-07-29T10:33:05;3.77;;;3.50;;
12314;SDS011;23886;46.614;14.276;2022-07-29T10:35:46;4.83;;;3.17;;
12314;SDS011;23886;46.614;14.276;2022-07-29T10:44:13;3.30;;;3.00;;
12314;SDS011;23886;46.614;14.276;2022-07-29T10:46:42;3.60;;;3.30;;
12314;SDS011;23886;46.614;14.276;2022-07-29T10:49:11;3.70;;;3.40;;
12314;SDS011;23886;46.614;14.276;2022-07-29T10:51:53;3.83;;;3.53;;
12314;SDS011;23886;46.614;14.276;2022-07-29T10:57:23;3.70;;;3.40;;
12314;SDS011;23886;46.614;14.276;2022-07-29T11:02:57;3.90;;;3.55;;
12314;SDS011;23886;46.614;14.276;2022-07-29T11:05:26;3.95;;;3.55;;
12314;SDS011;23886;46.614;14.276;2022-07-29T11:10:46;4.32;;;3.92;;
12314;SDS011;23886;46.614;14.276;2022-07-29T11:13:23;4.05;;;3.75;;
12314;SDS011;23886;46.614;14.276;2022-07-29T11:16:16;4.40;;;4.00;;
12314;SDS011;23886;46.614;14.276;2022-07-29T11:21:46;4.07;;;3.70;;
12314;SDS011;23886;46.614;14.276;2022-07-29T11:24:15;4.00;;;3.70;;
12314;SDS011;23886;46.614;14.276;2022-07-29T11:29:47;4.07;;;3.50;;
12314;SDS011;23886;46.614;14.276;2022-07-29T11:32:16;3.55;;;3.25;;
12314;SDS011;23886;46.614;14.276;2022-07-29T11:34:45;4.80;;;4.35;;
12314;SDS011;23886;46.614;14.276;2022-07-29T11:37:14;3.78;;;3.50;;
12314;SDS011;23886;46.614;14.276;2022-07-29T11:39:43;3.70;;;3.40;;
12314;SDS011;23886;46.614;14.276;2022-07-29T11:45:16;4.22;;;3.55;;
12314;SDS011;23886;46.614;14.276;2022-07-29T11:47:49;3.55;;;3.25;;
12314;SDS011;23886;46.614;14.276;2022-07-29T11:50:26;3.70;;;3.35;;
12314;SDS011;23886;46.614;14.276;2022-07-29T11:52:56;3.50;;;3.20;;
12314;SDS011;23886;46.614;14.276;2022-07-29T11:55:23;4.25;;;3.05;;
12314;SDS011;23886;46.614;14.276;2022-07-29T11:57:51;4.18;;;3.08;;
12314;SDS011;23886;46.614;14.276;2022-07-29T12:00:25;3.00;;;2.80;;
12314;SDS011;23886;46.614;14.276;2022-07-29T12:02:53;3.75;;;3.33;;
12314;SDS011;23886;46.614;14.276;2022-07-29T12:05:21;4.53;;;2.97;;
12314;SDS011;23886;46.614;14.276;2022-07-29T12:08:03;3.35;;;3.05;;
12314;SDS011;23886;46.614;14.276;2022-07-29T12:10:35;3.75;;;3.00;;
12314;SDS011;23886;46.614;14.276;2022-07-29T12:13:02;3.63;;;3.15;;
12314;SDS011;23886;46.614;14.276;2022-07-29T12:15:30;2.80;;;2.60;;
12314;SDS011;23886;46.614;14.276;2022-07-29T12:17:58;2.75;;;2.55;;
12314;SDS011;23886;46.614;14.276;2022-07-29T12:20:35;3.35;;;3.10;;
12314;SDS011;23886;46.614;14.276;2022-07-29T12:23:04;3.00;;;2.80;;
12314;SDS011;23886;46.614;14.276;2022-07-29T12:25:33;4.88;;;3.10;;
12314;SDS011;23886;46.614;14.276;2022-07-29T12:28:01;3.15;;;2.88;;
12314;SDS011;23886;46.614;14.276;2022-07-29T12:30:38;2.70;;;2.50;;
12314;SDS011;23886;46.614;14.276;2022-07-29T12:33:10;2.65;;;2.45;;
12314;SDS011;23886;46.614;14.276;2022-07-29T12:35:42;2.80;;;2.60;;
12314;SDS011;23886;46.614;14.276;2022-07-29T12:38:12;2.95;;;2.60;;
12314;SDS011;23886;46.614;14.276;2022-07-29T12:40:40;2.70;;;2.50;;
12314;SDS011;23886;46.614;14.276;2022-07-29T12:43:08;2.55;;;2.28;;
12314;SDS011;23886;46.614;14.276;2022-07-29T12:45:39;2.47;;;2.20;;
12314;SDS011;23886;46.614;14.276;2022-07-29T12:48:09;2.45;;;2.25;;
12314;SDS011;23886;46.614;14.276;2022-07-29T12:50:36;2.58;;;2.38;;
12314;SDS011;23886;46.614;14.276;2022-07-29T12:53:18;2.50;;;2.30;;
12314;SDS011;23886;46.614;14.276;2022-07-29T12:55:46;2.47;;;2.28;;
12314;SDS011;23886;46.614;14.276;2022-07-29T13:01:10;2.50;;;2.30;;
12314;SDS011;23886;46.614;14.276;2022-07-29T13:03:46;3.03;;;2.30;;
12314;SDS011;23886;46.614;14.276;2022-07-29T13:06:31;3.65;;;2.28;;
12314;SDS011;23886;46.614;14.276;2022-07-29T13:09:00;3.05;;;2.40;;
12314;SDS011;23886;46.614;14.276;2022-07-29T13:11:30;2.40;;;2.00;;
12314;SDS011;23886;46.614;14.276;2022-07-29T13:13:58;2.80;;;2.47;;
12314;SDS011;23886;46.614;14.276;2022-07-29T13:16:27;3.13;;;2.30;;
12314;SDS011;23886;46.614;14.276;2022-07-29T13:19:03;2.83;;;2.50;;
12314;SDS011;23886;46.614;14.276;2022-07-29T13:21:34;4.20;;;2.40;;
12314;SDS011;23886;46.614;14.276;2022-07-29T13:24:02;2.20;;;2.10;;
12314;SDS011;23886;46.614;14.276;2022-07-29T13:26:31;2.40;;;2.20;;
12314;SDS011;23886;46.614;14.276;2022-07-29T13:28:58;2.70;;;2.15;;
12314;SDS011;23886;46.614;14.276;2022-07-29T13:31:26;2.53;;;2.30;;
12314;SDS011;23886;46.614;14.276;2022-07-29T13:33:54;2.38;;;2.20;;
12314;SDS011;23886;46.614;14.276;2022-07-29T13:36:21;2.33;;;2.13;;
12314;SDS011;23886;46.614;14.276;2022-07-29T13:38:48;4.35;;;2.30;;
12314;SDS011;23886;46.614;14.276;2022-07-29T13:41:15;4.25;;;2.60;;
12314;SDS011;23886;46.614;14.276;2022-07-29T13:43:42;2.95;;;2.40;;
12314;SDS011;23886;46.614;14.276;2022-07-29T13:46:09;2.53;;;2.33;;
12314;SDS011;23886;46.614;14.276;2022-07-29T13:48:38;2.08;;;1.98;;
12314;SDS011;23886;46.614;14.276;2022-07-29T13:51:05;2.55;;;2.35;;
12314;SDS011;23886;46.614;14.276;2022-07-29T13:53:32;2.47;;;2.22;;
12314;SDS011;23886;46.614;14.276;2022-07-29T13:55:59;2.45;;;2.25;;
12314;SDS011;23886;46.614;14.276;2022-07-29T13:58:26;2.33;;;2.13;;
12314;SDS011;23886;46.614;14.276;2022-07-29T14:00:55;4.03;;;2.00;;
12314;SDS011;23886;46.614;14.276;2022-07-29T14:03:22;2.35;;;2.15;;
12314;SDS011;23886;46.614;14.276;2022-07-29T14:05:51;2.30;;;2.10;;
12314;SDS011;23886;46.614;14.276;2022-07-29T14:08:18;2.35;;;2.15;;
12314;SDS011;23886;46.614;14.276;2022-07-29T14:10:45;2.70;;;2.10;;
12314;SDS011;23886;46.614;14.276;2022-07-29T14:13:12;4.18;;;2.33;;
12314;SDS011;23886;46.614;14.276;2022-07-29T14:15:39;2.40;;;2.20;;
12314;SDS011;23886;46.614;14.276;2022-07-29T14:18:06;2.47;;;2.28;;
12314;SDS011;23886;46.614;14.276;2022-07-29T14:20:33;2.15;;;2.05;;
12314;SDS011;23886;46.614;14.276;2022-07-29T14:23:01;2.78;;;2.10;;
12314;SDS011;23886;46.614;14.276;2022-07-29T14:25:28;2.30;;;2.10;;
12314;SDS011;23886;46.614;14.276;2022-07-29T14:27:55;2.22;;;2.03;;
12314;SDS011;23886;46.614;14.276;2022-07-29T14:30:22;3.83;;;2.30;;
12314;SDS011;23886;46.614;14.276;2022-07-29T14:32:49;3.22;;;2.90;;
12314;SDS011;23886;46.614;14.276;2022-07-29T14:35:16;2.42;;;2.10;;
12314;SDS011;23886;46.614;14.276;2022-07-29T14:37:43;3.78;;;2.30;;
12314;SDS011;23886;46.614;14.276;2022-07-29T14:40:11;3.20;;;2.17;;
12314;SDS011;23886;46.614;14.276;2022-07-29T14:42:39;2.15;;;1.98;;
12314;SDS011;23886;46.614;14.276;2022-07-29T14:45:06;2.38;;;2.17;;
12314;SDS011;23886;46.614;14.276;2022-07-29T14:47:35;2.83;;;1.83;;
12314;SDS011;23886;46.614;14.276;2022-07-29T14:50:03;3.33;;;2.42;;
12314;SDS011;23886;46.614;14.276;2022-07-29T14:52:31;2.55;;;2.35;;
12314;SDS011;23886;46.614;14.276;2022-07-29T14:54:58;2.53;;;2.20;;
12314;SDS011;23886;46.614;14.276;2022-07-29T14:57:27;4.78;;;3.55;;
12314;SDS011;23886;46.614;14.276;2022-07-29T14:59:54;2.35;;;2.15;;
12314;SDS011;23886;46.614;14.276;2022-07-29T15:02:21;3.95;;;2.20;;
12314;SDS011;23886;46.614;14.276;2022-07-29T15:04:48;2.25;;;2.05;;
12314;SDS011;23886;46.614;14.276;2022-07-29T15:07:15;5.28;;;2.30;;
12314;SDS011;23886;46.614;14.276;2022-07-29T15:09:42;3.75;;;2.20;;
12314;SDS011;23886;46.614;14.276;2022-07-29T15:12:10;2.30;;;2.10;;